Time;durP1;ratioP1;P1;durP2;ratioP2;P2;SDS_P1;SDS_P2;PMS_P1;PMS_P2;Temp;Humidity;BMP_temperature;BMP_pressure;BME280_temperature;BME280_humidity;BME280_pressure;Samples;Min_cycle;Max_cycle;Signal;HPM_P1;HPM_P2
2022/11/23 00:00:54;;;;;;;;;;;;;;;16.32;73.11;98783.31;5104102;28;1818;-64
2022/11/23 00:03:19;;;;;;;;;;;;;;;16.32;73.06;98782.50;5114891;28;1761;-65
2022/11/23 00:05:44;;;;;;;;;;;;;;;16.33;72.97;98784.09;5104916;28;1727;-65
2022/11/23 00:08:09;;;;;;;;;;;;;;;16.33;73.20;98784.91;5103085;28;1810;-65
2022/11/23 00:10:34;;;;;;;;;;;;;;;16.33;72.75;98781.34;5115240;28;1571;-64
2022/11/23 00:12:59;;;;;;;;;;;;;;;16.33;73.04;98790.44;5111463;28;2857;-65
2022/11/23 00:15:25;;;;;;;;;;;;;;;16.34;73.30;98792.00;5108631;28;1592;-66
2022/11/23 00:17:50;;;;;;;;;;;;;;;16.31;72.82;98778.94;5107891;28;1779;-66
2022/11/23 00:20:15;;;;;;;;;;;;;;;16.32;73.24;98776.97;5114023;28;1795;-66
2022/11/23 00:22:40;;;;;;;;;;;;;;;16.32;72.88;98782.50;5108715;28;1407;-65
2022/11/23 00:25:06;;;;;;;;;;;;;;;16.32;72.95;98779.75;5110781;28;1781;-65
2022/11/23 00:27:31;;;;;;;;;;;;;;;16.32;73.25;98799.06;5111911;28;1781;-66
2022/11/23 00:29:56;;;;;;;;;;;;;;;16.33;73.32;98795.94;5110192;28;2046;-66
2022/11/23 00:32:21;;;;;;;;;;;;;;;16.31;73.08;98792.75;5108828;28;1922;-65
2022/11/23 00:34:46;;;;;;;;;;;;;;;16.23;72.88;98790.97;5110134;28;1792;-66
2022/11/23 00:37:11;;;;;;;;;;;;;;;16.31;73.12;98794.69;5109918;28;1795;-65
2022/11/23 00:39:36;;;;;;;;;;;;;;;16.31;72.92;98789.19;5111836;28;1664;-64
2022/11/23 00:42:02;;;;;;;;;;;;;;;16.32;73.20;98790.78;5108827;28;1226;-65
2022/11/23 00:44:27;;;;;;;;;;;;;;;16.31;72.92;98795.50;5117039;28;1299;-65
2022/11/23 00:46:52;;;;;;;;;;;;;;;16.30;72.93;98791.13;5117085;28;722;-66
2022/11/23 00:49:17;;;;;;;;;;;;;;;16.31;72.93;98797.47;5100636;28;1779;-65
2022/11/23 00:51:42;;;;;;;;;;;;;;;16.32;72.88;98799.06;5115729;28;1627;-65
2022/11/23 00:54:08;;;;;;;;;;;;;;;16.30;73.06;98796.66;5116691;28;1951;-65
2022/11/23 00:56:34;;;;;;;;;;;;;;;16.30;72.80;98802.19;5116595;28;816;-64
2022/11/23 00:59:00;;;;;;;;;;;;;;;16.29;73.59;98792.28;5114860;28;2144;-65
2022/11/23 01:01:26;;;;;;;;;;;;;;;16.29;73.12;98792.28;5099904;28;1635;-66
2022/11/23 01:03:52;;;;;;;;;;;;;;;16.29;73.04;98789.53;5096324;28;1129;-64
2022/11/23 01:06:22;;;;;;;;;;;;;;;16.30;72.96;98798.63;5105381;28;1777;-65
2022/11/23 01:08:52;;;;;;;;;;;;;;;16.28;73.57;98802.53;5112460;28;1807;-64
2022/11/23 01:11:18;;;;;;;;;;;;;;;16.28;73.52;98791.50;5112717;28;1754;-64
2022/11/23 01:13:43;;;;;;;;;;;;;;;16.30;73.40;98795.88;5105874;28;1992;-65
2022/11/23 01:16:11;;;;;;;;;;;;;;;16.29;73.45;98789.53;5105473;28;1945;-65
2022/11/23 01:18:36;;;;;;;;;;;;;;;16.29;73.31;98784.00;5106024;28;1742;-65
2022/11/23 01:21:02;;;;;;;;;;;;;;;16.30;73.33;98791.13;5104019;28;1748;-65
2022/11/23 01:23:28;;;;;;;;;;;;;;;16.29;73.33;98784.00;5102775;28;1681;-65
2022/11/23 01:25:53;;;;;;;;;;;;;;;16.28;73.06;98785.97;5111306;28;1714;-66
2022/11/23 01:28:18;;;;;;;;;;;;;;;16.30;73.33;98793.09;5110957;28;1640;-65
2022/11/23 01:30:43;;;;;;;;;;;;;;;16.29;73.27;98797.81;5112751;28;1818;-65
2022/11/23 01:33:08;;;;;;;;;;;;;;;16.29;73.84;98792.28;5098851;28;1902;-65
2022/11/23 01:35:33;;;;;;;;;;;;;;;16.28;73.30;98798.97;5113468;28;1838;-66
2022/11/23 01:37:59;;;;;;;;;;;;;;;16.27;73.49;98795.41;5105420;28;1664;-65
2022/11/23 01:40:24;;;;;;;;;;;;;;;16.26;73.33;98791.03;5096967;28;1750;-66
2022/11/23 01:42:52;;;;;;;;;;;;;;;16.28;73.49;98799.78;5107593;28;1839;-63
2022/11/23 01:45:37;;;;;;;;;;;;;;;16.25;73.66;98794.97;5106731;28;1731;-66
2022/11/23 01:48:05;;;;;;;;;;;;;;;16.26;73.43;98799.31;5103850;28;1703;-64
2022/11/23 01:50:31;;;;;;;;;;;;;;;16.26;73.27;98801.28;5114161;28;1820;-65
2022/11/23 01:52:56;;;;;;;;;;;;;;;16.26;73.46;98810.38;5108111;28;1889;-65
2022/11/23 01:55:22;;;;;;;;;;;;;;;16.26;73.78;98804.84;5106752;28;1596;-65
2022/11/23 01:57:47;;;;;;;;;;;;;;;16.27;73.68;98811.16;5112036;28;1847;-65
2022/11/23 02:00:12;;;;;;;;;;;;;;;16.27;73.73;98814.75;5114361;28;1848;-66
2022/11/23 02:02:41;;;;;;;;;;;;;;;16.25;73.53;98819.81;5107927;28;1663;-65
2022/11/23 02:05:07;;;;;;;;;;;;;;;16.26;73.45;98815.91;5103872;28;1782;-64
2022/11/23 02:07:32;;;;;;;;;;;;;;;16.26;73.57;98818.66;5107139;28;1889;-66
2022/11/23 02:09:57;;;;;;;;;;;;;;;16.26;73.86;98812.34;5102798;28;1919;-65
2022/11/23 02:12:23;;;;;;;;;;;;;;;16.26;73.30;98817.84;5112602;28;1962;-65
2022/11/23 02:14:48;;;;;;;;;;;;;;;16.25;73.94;98816.25;5109822;28;2119;-66
2022/11/23 02:17:13;;;;;;;;;;;;;;;16.24;73.67;98814.66;5102552;28;1896;-65
2022/11/23 02:19:46;;;;;;;;;;;;;;;16.24;73.34;98815.47;5111505;28;2037;-64
2022/11/23 02:22:21;;;;;;;;;;;;;;;16.24;73.90;98809.97;5101266;28;1781;-65
2022/11/23 02:24:48;;;;;;;;;;;;;;;16.24;73.89;98807.19;5103798;28;1776;-65
2022/11/23 02:27:14;;;;;;;;;;;;;;;16.24;73.76;98818.25;5105880;28;1733;-65
2022/11/23 02:29:40;;;;;;;;;;;;;;;16.24;73.31;98815.47;5104078;28;2023;-66
2022/11/23 02:32:05;;;;;;;;;;;;;;;16.24;73.91;98812.72;5104717;28;2010;-65
2022/11/23 02:34:30;;;;;;;;;;;;;;;16.24;73.80;98807.19;5104880;28;1969;-65
2022/11/23 02:36:56;;;;;;;;;;;;;;;16.23;74.08;98813.88;5104799;28;1780;-65
2022/11/23 02:39:28;;;;;;;;;;;;;;;16.25;73.61;98810.72;5106306;28;1834;-65
2022/11/23 02:41:53;;;;;;;;;;;;;;;16.23;73.26;98813.88;5101172;28;1990;-66
2022/11/23 02:44:18;;;;;;;;;;;;;;;16.22;73.58;98811.47;5103842;28;1670;-66
2022/11/23 02:46:44;;;;;;;;;;;;;;;16.22;73.69;98809.50;5110423;28;1825;-65
2022/11/23 02:49:09;;;;;;;;;;;;;;;16.22;73.87;98801.22;5108173;28;2104;-65
2022/11/23 02:51:34;;;;;;;;;;;;;;;16.22;73.78;98811.47;5110940;28;1727;-65
2022/11/23 02:53:59;;;;;;;;;;;;;;;16.21;73.74;98812.63;5114344;28;1980;-65
2022/11/23 02:56:24;;;;;;;;;;;;;;;16.20;73.75;98814.56;5108544;28;2132;-65
2022/11/23 02:58:49;;;;;;;;;;;;;;;16.22;73.79;98822.50;5112065;28;1809;-65
2022/11/23 03:01:15;;;;;;;;;;;;;;;16.22;73.89;98811.47;5105879;28;1809;-65
2022/11/23 03:03:40;;;;;;;;;;;;;;;16.24;73.67;98821.00;5108827;27;2575;-65
2022/11/23 03:06:05;;;;;;;;;;;;;;;16.22;73.92;98820.53;5100516;28;1869;-65
2022/11/23 03:08:30;;;;;;;;;;;;;;;16.22;73.85;98822.50;5109468;28;1920;-65
2022/11/23 03:10:55;;;;;;;;;;;;;;;16.20;74.03;98811.81;5102772;28;1872;-65
2022/11/23 03:13:20;;;;;;;;;;;;;;;16.22;74.13;98816.97;5104206;28;1964;-64
2022/11/23 03:15:45;;;;;;;;;;;;;;;16.20;73.99;98820.09;5106742;28;1870;-65
2022/11/23 03:18:11;;;;;;;;;;;;;;;16.22;73.75;98816.97;5104100;28;1924;-64
2022/11/23 03:20:36;;;;;;;;;;;;;;;16.21;74.06;98821.69;5112021;28;2212;-65
2022/11/23 03:23:01;;;;;;;;;;;;;;;16.21;73.71;98816.19;5135916;22;2272;-65
2022/11/23 03:25:26;;;;;;;;;;;;;;;16.20;73.80;98819.28;5044705;28;1789;-66
2022/11/23 03:27:51;;;;;;;;;;;;;;;16.18;73.71;98814.13;5051227;28;1648;-65
2022/11/23 03:30:16;;;;;;;;;;;;;;;16.18;73.45;98819.66;5068832;28;1571;-66
2022/11/23 03:32:42;;;;;;;;;;;;;;;16.19;73.58;98818.50;5054238;28;2086;-65
2022/11/23 03:35:07;;;;;;;;;;;;;;;16.18;73.28;98816.09;5060788;28;1807;-64
2022/11/23 03:37:32;;;;;;;;;;;;;;;16.18;73.91;98816.88;5058111;28;1631;-65
2022/11/23 03:39:58;;;;;;;;;;;;;;;16.17;73.71;98820.81;5073273;28;788;-65
2022/11/23 03:42:23;;;;;;;;;;;;;;;16.19;73.82;98823.22;5061431;28;1470;-66
2022/11/23 03:44:48;;;;;;;;;;;;;;;16.20;73.82;98824.81;5060576;28;2321;-65
2022/11/23 03:47:13;;;;;;;;;;;;;;;16.18;73.61;98825.16;5067808;28;1526;-65
2022/11/23 03:49:39;;;;;;;;;;;;;;;16.19;73.56;98824.00;5055651;28;840;-66
2022/11/23 03:52:04;;;;;;;;;;;;;;;16.20;74.09;98824.81;5053022;28;999;-66
2022/11/23 03:54:29;;;;;;;;;;;;;;;16.18;73.99;98821.59;5060353;28;2042;-66
2022/11/23 03:56:54;;;;;;;;;;;;;;;16.19;73.90;98824.00;5059513;28;1581;-65
2022/11/23 03:59:19;;;;;;;;;;;;;;;16.18;73.62;98825.16;5056972;28;1947;-65
2022/11/23 04:01:44;;;;;;;;;;;;;;;16.17;74.40;98825.53;5056742;28;1643;-65
2022/11/23 04:04:09;;;;;;;;;;;;;;;16.19;73.81;98820.44;5051592;28;2025;-64
2022/11/23 04:06:35;;;;;;;;;;;;;;;16.17;74.21;98825.53;5056102;28;1765;-65
2022/11/23 04:09:00;;;;;;;;;;;;;;;16.18;74.06;98816.88;5063668;28;1750;-65
2022/11/23 04:11:25;;;;;;;;;;;;;;;16.16;73.61;98815.66;5055774;28;1648;-65
2022/11/23 04:13:50;;;;;;;;;;;;;;;16.16;74.02;98821.97;5047032;28;1882;-65
2022/11/23 04:16:15;;;;;;;;;;;;;;;16.17;73.91;98815.28;5047349;28;1649;-65
2022/11/23 04:18:40;;;;;;;;;;;;;;;16.17;73.85;98820.81;5059698;28;1743;-65
2022/11/23 04:21:05;;;;;;;;;;;;;;;16.17;74.27;98825.53;5057692;28;1568;-65
2022/11/23 04:23:31;;;;;;;;;;;;;;;16.16;73.75;98827.47;5055544;28;1781;-66
2022/11/23 04:25:56;;;;;;;;;;;;;;;16.17;73.95;98820.00;5047107;28;1821;-65
2022/11/23 04:28:21;;;;;;;;;;;;;;;16.16;73.97;98824.72;5055033;28;1733;-66
2022/11/23 04:30:46;;;;;;;;;;;;;;;16.16;74.08;98827.47;5061146;28;1508;-65
2022/11/23 04:33:11;;;;;;;;;;;;;;;16.17;73.69;98825.53;5050315;28;2092;-66
2022/11/23 04:35:37;;;;;;;;;;;;;;;16.16;73.88;98830.25;5049765;28;1617;-66
2022/11/23 04:38:02;;;;;;;;;;;;;;;16.15;74.10;98827.88;5050556;28;1629;-65
2022/11/23 04:40:28;;;;;;;;;;;;;;;16.16;74.04;98829.47;5055847;28;2070;-65
2022/11/23 04:42:53;;;;;;;;;;;;;;;16.14;73.96;98831.78;5070662;28;2138;-65
2022/11/23 04:45:18;;;;;;;;;;;;;;;16.16;73.86;98829.47;5061853;28;1591;-66
2022/11/23 04:47:43;;;;;;;;;;;;;;;16.15;74.14;98834.19;5075077;28;1587;-65
2022/11/23 04:50:08;;;;;;;;;;;;;;;16.15;73.84;98834.19;5076329;28;939;-66
2022/11/23 04:52:33;;;;;;;;;;;;;;;16.16;73.97;98837.75;5076102;28;1967;-65
2022/11/23 04:54:58;;;;;;;;;;;;;;;16.15;74.14;98839.72;5065089;28;2335;-65
2022/11/23 04:57:24;;;;;;;;;;;;;;;16.14;74.46;98827.06;5056852;28;1476;-65
2022/11/23 04:59:49;;;;;;;;;;;;;;;16.14;73.97;98835.34;5056207;28;983;-66
2022/11/23 05:02:14;;;;;;;;;;;;;;;16.14;74.19;98829.03;5056073;28;841;-65
2022/11/23 05:04:39;;;;;;;;;;;;;;;16.12;74.37;98829.38;5063164;28;1830;-65
2022/11/23 05:07:04;;;;;;;;;;;;;;;16.12;74.38;98829.38;5060696;28;1809;-66
2022/11/23 05:09:30;;;;;;;;;;;;;;;16.13;74.38;98832.94;5058726;28;1980;-65
2022/11/23 05:11:55;;;;;;;;;;;;;;;16.12;74.30;98832.13;5065844;28;1840;-65
2022/11/23 05:14:21;;;;;;;;;;;;;;;16.13;74.29;98838.47;5057107;28;2207;-66
2022/11/23 05:16:46;;;;;;;;;;;;;;;16.13;74.19;98835.69;5058482;28;1586;-66
2022/11/23 05:19:11;;;;;;;;;;;;;;;16.14;74.39;98834.53;5067810;28;1725;-65
2022/11/23 05:21:36;;;;;;;;;;;;;;;16.14;74.41;98831.78;5066102;28;1638;-65
2022/11/23 05:24:01;;;;;;;;;;;;;;;16.12;74.23;98823.84;5055656;28;1987;-65
2022/11/23 05:26:27;;;;;;;;;;;;;;;16.12;74.42;98829.38;5054489;28;1786;-66
2022/11/23 05:28:52;;;;;;;;;;;;;;;16.11;74.26;98838.81;5067124;28;1965;-63
2022/11/23 05:31:18;;;;;;;;;;;;;;;16.13;74.17;98824.66;5063145;28;1638;-66
2022/11/23 05:33:43;;;;;;;;;;;;;;;16.12;74.19;98831.31;5056635;28;1995;-63
2022/11/23 05:36:08;;;;;;;;;;;;;;;16.12;74.37;98840.41;5059890;28;2041;-65
2022/11/23 05:38:33;;;;;;;;;;;;;;;16.11;74.13;98838.00;5068240;28;2047;-64
2022/11/23 05:40:59;;;;;;;;;;;;;;;16.12;74.08;98836.84;5057450;28;2645;-65
2022/11/23 05:43:24;;;;;;;;;;;;;;;16.11;74.49;98852.59;5054998;28;1725;-65
2022/11/23 05:45:49;;;;;;;;;;;;;;;16.11;74.18;98852.59;5058920;28;1800;-65
2022/11/23 05:48:14;;;;;;;;;;;;;;;16.11;74.08;98844.31;5060138;28;1656;-64
2022/11/23 05:50:39;;;;;;;;;;;;;;;16.10;74.28;98844.69;5059648;28;1652;-65
2022/11/23 05:53:05;;;;;;;;;;;;;;;16.10;73.92;98841.91;5054577;28;2278;-66
2022/11/23 05:55:30;;;;;;;;;;;;;;;16.11;74.30;98849.84;5053726;28;1797;-67
2022/11/23 05:57:55;;;;;;;;;;;;;;;16.10;74.31;98848.25;5065546;28;1648;-65
2022/11/23 06:00:20;;;;;;;;;;;;;;;16.10;74.21;98851.00;5072010;28;1896;-66
2022/11/23 06:02:46;;;;;;;;;;;;;;;16.10;74.51;98856.53;5053450;28;1964;-65
2022/11/23 06:05:11;;;;;;;;;;;;;;;16.09;74.27;98856.88;5055646;28;1843;-65
2022/11/23 06:07:36;;;;;;;;;;;;;;;16.11;74.47;98857.31;5062180;28;1739;-66
2022/11/23 06:10:01;;;;;;;;;;;;;;;16.09;74.34;98854.13;5068326;28;1588;-66
2022/11/23 06:12:27;;;;;;;;;;;;;;;16.10;74.22;98855.72;5053316;28;2048;-66
2022/11/23 06:14:52;;;;;;;;;;;;;;;16.10;74.61;98869.53;5054120;28;1894;-65
2022/11/23 06:17:17;;;;;;;;;;;;;;;16.09;74.48;98862.41;5064463;28;1777;-65
2022/11/23 06:19:43;;;;;;;;;;;;;;;16.08;73.68;98872.63;5063524;28;1614;-66
2022/11/23 06:22:08;;;;;;;;;;;;;;;16.09;74.60;98867.91;5034952;28;1844;-65
2022/11/23 06:24:33;;;;;;;;;;;;;;;16.10;74.35;98866.75;5051565;28;1794;-65
2022/11/23 06:26:58;;;;;;;;;;;;;;;16.09;74.58;98867.91;5061960;28;1639;-66
2022/11/23 06:29:23;;;;;;;;;;;;;;;16.08;74.75;98875.41;5062128;28;1629;-65
2022/11/23 06:31:48;;;;;;;;;;;;;;;16.09;74.51;98867.91;5058155;28;1785;-65
2022/11/23 06:34:14;;;;;;;;;;;;;;;16.09;74.53;98874.25;5055221;28;1906;-65
2022/11/23 06:36:39;;;;;;;;;;;;;;;16.08;74.52;98869.06;5057137;28;1631;-66
2022/11/23 06:39:04;;;;;;;;;;;;;;;16.09;74.23;98874.25;5065268;28;1597;-66
2022/11/23 06:41:29;;;;;;;;;;;;;;;16.08;74.38;98878.16;5055719;28;1837;-65
2022/11/23 06:43:54;;;;;;;;;;;;;;;16.08;74.44;98880.09;5058692;28;1562;-66
2022/11/23 06:46:20;;;;;;;;;;;;;;;16.08;74.71;98877.34;5070243;28;1677;-65
2022/11/23 06:48:45;;;;;;;;;;;;;;;16.07;74.19;98876.56;5035084;28;2031;-65
2022/11/23 06:51:11;;;;;;;;;;;;;;;16.07;74.65;98884.84;5058246;28;1874;-66
2022/11/23 06:53:36;;;;;;;;;;;;;;;16.07;74.54;98887.63;5047750;28;2010;-65
2022/11/23 06:56:02;;;;;;;;;;;;;;;16.09;74.05;98890.78;5060803;28;1957;-65
2022/11/23 06:58:27;;;;;;;;;;;;;;;16.09;74.39;98890.00;5062499;28;1607;-65
2022/11/23 07:00:52;;;;;;;;;;;;;;;16.07;74.48;98893.13;5061913;28;1988;-64
2022/11/23 07:03:21;;;;;;;;;;;;;;;16.09;74.77;98890.00;5060721;28;1705;-65
2022/11/23 07:05:46;;;;;;;;;;;;;;;16.10;74.64;98902.63;5060346;28;1769;-66
2022/11/23 07:08:11;;;;;;;;;;;;;;;16.09;74.70;98901.84;5061230;28;1522;-66
2022/11/23 07:10:37;;;;;;;;;;;;;;;16.13;74.49;98893.66;5071665;28;1560;-65
2022/11/23 07:13:03;;;;;;;;;;;;;;;16.14;74.87;98892.50;5052347;28;1902;-70
2022/11/23 07:15:28;;;;;;;;;;;;;;;16.16;74.64;98890.19;5053262;28;1541;-65
2022/11/23 07:17:54;;;;;;;;;;;;;;;16.17;74.85;98900.84;5073217;28;812;-65
2022/11/23 07:20:19;;;;;;;;;;;;;;;16.17;74.47;98897.28;5063890;28;1771;-65
2022/11/23 07:22:44;;;;;;;;;;;;;;;16.17;74.72;98902.81;5055565;28;1763;-65
2022/11/23 07:25:10;;;;;;;;;;;;;;;16.19;74.18;98901.31;5061691;28;1284;-65
2022/11/23 07:27:35;;;;;;;;;;;;;;;16.24;74.44;98898.31;5052622;28;1870;-65
2022/11/23 07:30:00;;;;;;;;;;;;;;;16.26;74.35;98897.91;5061281;28;1852;-66
2022/11/23 07:32:25;;;;;;;;;;;;;;;16.26;74.23;98895.97;5062117;28;1876;-63
2022/11/23 07:34:51;;;;;;;;;;;;;;;16.26;74.54;98901.47;5047488;28;1894;-66
2022/11/23 07:37:16;;;;;;;;;;;;;;;16.28;74.56;98917.69;5055950;28;1974;-66
2022/11/23 07:39:41;;;;;;;;;;;;;;;16.29;74.90;98911.03;5064634;28;1837;-65
2022/11/23 07:42:06;;;;;;;;;;;;;;;16.29;74.74;98913.78;5054350;28;1773;-66
2022/11/23 07:44:31;;;;;;;;;;;;;;;16.30;74.35;98912.63;5060698;28;1723;-66
2022/11/23 07:46:57;;;;;;;;;;;;;;;16.31;74.79;98907.91;5061455;28;1569;-65
2022/11/23 07:49:22;;;;;;;;;;;;;;;16.32;74.74;98906.75;5055819;28;1875;-66
2022/11/23 07:51:47;;;;;;;;;;;;;;;16.33;75.03;98909.16;5055608;28;1758;-66
2022/11/23 07:54:12;;;;;;;;;;;;;;;16.34;74.55;98907.97;5051614;28;1914;-66
2022/11/23 07:56:38;;;;;;;;;;;;;;;16.35;74.73;98906.03;5068950;28;1589;-65
2022/11/23 07:59:03;;;;;;;;;;;;;;;16.35;74.83;98908.78;5057299;28;1872;-66
2022/11/23 08:01:30;;;;;;;;;;;;;;;16.36;74.52;98916.72;5055268;28;1728;-65
2022/11/23 08:03:55;;;;;;;;;;;;;;;16.36;74.81;98919.47;5053512;28;2088;-66
2022/11/23 08:06:20;;;;;;;;;;;;;;;16.13;72.08;98921.25;5052044;28;1799;-65
2022/11/23 08:08:45;;;;;;;;;;;;;;;15.79;71.36;98926.31;5054826;28;1814;-66
2022/11/23 08:11:13;;;;;;;;;;;;;;;15.78;72.78;98921.94;5064862;28;1606;-65
2022/11/23 08:13:39;;;;;;;;;;;;;;;15.91;72.72;98930.94;5059477;28;1894;-67
2022/11/23 08:16:04;;;;;;;;;;;;;;;16.01;73.00;98929.63;5057300;28;2260;-64
2022/11/23 08:18:29;;;;;;;;;;;;;;;16.08;73.34;98933.34;5049874;28;1653;-66
2022/11/23 08:20:58;;;;;;;;;;;;;;;16.15;72.48;98939.09;5063437;28;1581;-65
2022/11/23 08:23:24;;;;;;;;;;;;;;;16.20;73.43;98944.31;5065038;28;1755;-65
2022/11/23 08:25:49;;;;;;;;;;;;;;;16.25;73.48;98935.78;5068296;28;1676;-66
2022/11/23 08:28:14;;;;;;;;;;;;;;;16.28;73.48;98940.59;5066505;28;1854;-65
2022/11/23 08:30:39;;;;;;;;;;;;;;;16.30;72.95;98943.00;5075280;28;1638;-67
2022/11/23 08:33:05;;;;;;;;;;;;;;;16.33;73.25;98944.25;5069643;28;2347;-66
2022/11/23 08:35:35;;;;;;;;;;;;;;;16.34;73.54;98941.13;5051589;28;1801;-64
2022/11/23 08:38:00;;;;;;;;;;;;;;;16.36;72.99;98954.56;5063206;28;1519;-66
2022/11/23 08:40:25;;;;;;;;;;;;;;;16.37;73.14;98956.19;5063655;28;1726;-66
2022/11/23 08:42:50;;;;;;;;;;;;;;;16.38;73.28;98950.31;5051219;28;1792;-64
2022/11/23 08:45:16;;;;;;;;;;;;;;;16.38;73.63;98946.72;5054403;28;1852;-65
2022/11/23 08:47:41;;;;;;;;;;;;;;;16.39;73.24;98946.38;5060272;28;1947;-65
2022/11/23 08:50:06;;;;;;;;;;;;;;;16.40;73.20;98947.19;5067005;28;1682;-65
2022/11/23 08:52:31;;;;;;;;;;;;;;;16.40;73.44;98950.75;5063984;28;1785;-65
2022/11/23 08:54:56;;;;;;;;;;;;;;;16.42;73.41;98940.13;5059205;28;1975;-66
2022/11/23 08:57:21;;;;;;;;;;;;;;;16.41;73.38;98946.03;5050514;28;1757;-66
2022/11/23 08:59:47;;;;;;;;;;;;;;;16.42;73.37;98936.56;5064716;28;1694;-66
2022/11/23 09:02:12;;;;;;;;;;;;;;;16.42;73.43;98931.84;5064372;28;1935;-67
2022/11/23 09:04:38;;;;;;;;;;;;;;;16.16;73.23;98896.50;5053576;28;1612;-65
2022/11/23 09:07:03;;;;;;;;;;;;;;;16.44;73.27;98945.31;5062701;28;1678;-65
2022/11/23 09:09:29;;;;;;;;;;;;;;;16.43;73.68;98943.69;5062171;28;1781;-65
2022/11/23 09:11:54;;;;;;;;;;;;;;;16.44;73.38;98943.34;5062341;28;1958;-66
2022/11/23 09:14:20;;;;;;;;;;;;;;;16.44;73.47;98942.53;5051826;28;2075;-66
2022/11/23 09:16:45;;;;;;;;;;;;;;;16.45;73.34;98938.63;5055907;28;1974;-64
2022/11/23 09:19:12;;;;;;;;;;;;;;;16.45;73.13;98946.91;5065368;28;1533;-65
2022/11/23 09:21:38;;;;;;;;;;;;;;;16.45;73.47;98933.09;5055964;28;1927;-65
2022/11/23 09:24:03;;;;;;;;;;;;;;;16.45;73.59;98944.94;5059546;28;2260;-65
2022/11/23 09:26:30;;;;;;;;;;;;;;;16.45;73.59;98936.66;5061865;28;1726;-66
2022/11/23 09:28:55;;;;;;;;;;;;;;;16.46;73.30;98934.72;5057628;28;1656;-65
2022/11/23 09:31:22;;;;;;;;;;;;;;;16.46;73.16;98934.72;5062530;28;1551;-65
2022/11/23 09:33:50;;;;;;;;;;;;;;;16.46;73.42;98940.22;5065210;28;1937;-66
2022/11/23 09:36:15;;;;;;;;;;;;;;;16.46;73.49;98941.03;5067448;28;1686;-65
2022/11/23 09:38:41;;;;;;;;;;;;;;;16.46;74.06;98943.00;5066896;28;1643;-65
2022/11/23 09:41:35;;;;;;;;;;;;;;;16.47;73.71;98944.59;5069306;28;1519;-65
2022/11/23 09:44:19;;;;;;;;;;;;;;;16.46;73.87;98940.22;5050119;28;2207;-65
2022/11/23 09:46:51;;;;;;;;;;;;;;;16.48;73.95;98948.97;5056279;28;1637;-66
2022/11/23 09:49:18;;;;;;;;;;;;;;;16.47;73.71;98956.44;5060177;28;1895;-64
2022/11/23 09:51:43;;;;;;;;;;;;;;;16.49;73.88;98958.84;5061382;28;1644;-66
2022/11/23 09:54:29;;;;;;;;;;;;;;;16.49;73.26;98953.34;5052894;28;2313;-65
2022/11/23 09:56:55;;;;;;;;;;;;;;;16.49;73.92;98959.66;5051685;28;2269;-65
2022/11/23 09:59:26;;;;;;;;;;;;;;;16.50;73.97;98957.69;5052993;28;1898;-64
2022/11/23 10:01:51;;;;;;;;;;;;;;;16.50;73.34;98955.72;5050674;28;1979;-66
2022/11/23 10:04:18;;;;;;;;;;;;;;;16.51;73.81;98959.28;5058218;28;2475;-65
2022/11/23 10:06:44;;;;;;;;;;;;;;;16.51;73.16;98962.84;5062724;28;1471;-66
2022/11/23 10:09:30;;;;;;;;;;;;;;;16.52;73.72;98958.13;5060428;28;1949;-66
2022/11/23 10:12:05;;;;;;;;;;;;;;;16.53;73.42;98965.25;5046410;28;1654;-66
2022/11/23 10:14:31;;;;;;;;;;;;;;;16.52;73.47;98964.44;5054045;28;2051;-67
2022/11/23 10:17:05;;;;;;;;;;;;;;;16.53;73.93;98963.28;5054422;28;809;-65
2022/11/23 10:19:30;;;;;;;;;;;;;;;16.53;73.48;98970.78;5060162;28;1719;-66
2022/11/23 10:22:24;;;;;;;;;;;;;;;16.53;74.01;98966.06;5051481;28;1989;-65
2022/11/23 10:24:50;;;;;;;;;;;;;;;16.54;73.34;98967.66;5033689;28;1898;-66
2022/11/23 10:27:17;;;;;;;;;;;;;;;16.55;73.85;98957.41;5051322;28;1814;-65
2022/11/23 10:29:42;;;;;;;;;;;;;;;16.56;73.88;98975.59;5048917;28;1830;-66
2022/11/23 10:32:26;;;;;;;;;;;;;;;16.54;73.54;98972.38;5051885;28;1841;-65
2022/11/23 10:34:57;;;;;;;;;;;;;;;16.52;73.57;98969.97;5053268;28;1963;-65
2022/11/23 10:37:22;;;;;;;;;;;;;;;16.52;73.42;98977.47;5054132;28;2989;-65
2022/11/23 10:39:48;;;;;;;;;;;;;;;16.50;73.15;98977.81;5051718;28;1979;-66
2022/11/23 10:42:23;;;;;;;;;;;;;;;16.49;73.80;98967.94;5046376;28;2052;-64
2022/11/23 10:44:49;;;;;;;;;;;;;;;16.51;73.01;98971.13;5049816;28;1888;-65
2022/11/23 10:47:33;;;;;;;;;;;;;;;16.52;73.81;98966.41;5058343;28;1856;-65
2022/11/23 10:49:58;;;;;;;;;;;;;;;16.53;73.65;98970.78;5051728;28;1711;-65
2022/11/23 10:52:28;;;;;;;;;;;;;;;16.53;73.80;98959.72;5064554;28;1993;-65
2022/11/23 10:54:54;;;;;;;;;;;;;;;16.53;73.88;98963.28;5073764;28;1893;-65
2022/11/23 10:57:33;;;;;;;;;;;;;;;16.53;73.28;98952.25;5064882;28;1847;-65
2022/11/23 11:00:08;;;;;;;;;;;;;;;16.53;73.97;98949.47;5059526;28;1601;-65
2022/11/23 11:02:40;;;;;;;;;;;;;;;16.54;73.12;98961.34;5055398;28;1916;-65
2022/11/23 11:05:27;;;;;;;;;;;;;;;16.55;73.40;98955.47;5054536;28;1982;-66
2022/11/23 11:07:53;;;;;;;;;;;;;;;16.54;73.90;98953.84;5050784;28;1926;-65
2022/11/23 11:10:30;;;;;;;;;;;;;;;16.55;73.60;98947.19;5058334;28;2090;-65
2022/11/23 11:12:55;;;;;;;;;;;;;;;16.56;73.09;98946.03;5052569;28;2239;-66
2022/11/23 11:15:21;;;;;;;;;;;;;;;16.55;73.04;98933.38;5050247;28;1928;-65
2022/11/23 11:17:52;;;;;;;;;;;;;;;16.57;73.26;98941.28;5063639;28;1964;-65
2022/11/23 11:20:27;;;;;;;;;;;;;;;16.58;73.24;98945.66;5059830;28;1883;-66
2022/11/23 11:22:52;;;;;;;;;;;;;;;16.57;73.49;98944.88;5048153;28;1907;-66
2022/11/23 11:25:29;;;;;;;;;;;;;;;16.58;73.74;98940.94;5057470;28;1707;-66
2022/11/23 11:27:54;;;;;;;;;;;;;;;16.58;73.75;98942.91;5058735;28;2092;-66
2022/11/23 11:30:21;;;;;;;;;;;;;;;16.60;73.99;98944.13;5063704;28;1942;-65
2022/11/23 11:32:52;;;;;;;;;;;;;;;16.59;73.47;98931.47;5051294;28;1878;-65
2022/11/23 11:35:30;;;;;;;;;;;;;;;16.61;73.37;98931.16;5060284;28;1488;-65
2022/11/23 11:37:59;;;;;;;;;;;;;;;16.61;73.78;98933.91;5065332;28;1740;-65
2022/11/23 11:40:35;;;;;;;;;;;;;;;16.61;73.76;98936.69;5060388;28;1879;-65
2022/11/23 11:43:19;;;;;;;;;;;;;;;16.60;73.67;98930.31;5046180;28;1569;-66
2022/11/23 11:45:50;;;;;;;;;;;;;;;16.61;73.29;98929.19;5056082;28;2025;-64
2022/11/23 11:48:24;;;;;;;;;;;;;;;16.61;73.80;98934.72;5063946;28;1792;-65
2022/11/23 11:50:49;;;;;;;;;;;;;;;16.62;73.83;98930.78;5059191;28;2119;-66
2022/11/23 11:53:17;;;;;;;;;;;;;;;16.62;73.62;98925.28;5051628;28;2074;-65
2022/11/23 11:55:50;;;;;;;;;;;;;;;16.62;73.43;98930.00;5053288;28;1838;-63
2022/11/23 11:58:15;;;;;;;;;;;;;;;16.62;73.36;98930.78;5064990;28;1430;-65
2022/11/23 12:00:41;;;;;;;;;;;;;;;16.62;73.55;98935.53;5051416;28;1872;-66
2022/11/23 12:03:16;;;;;;;;;;;;;;;16.62;73.94;98925.28;5051960;28;1513;-65
2022/11/23 12:05:45;;;;;;;;;;;;;;;16.62;73.55;98932.75;5053693;28;1945;-64
2022/11/23 12:08:10;;;;;;;;;;;;;;;16.62;73.62;98935.53;5058088;28;1663;-66
2022/11/23 12:10:47;;;;;;;;;;;;;;;16.62;73.84;98930.00;5057143;28;2077;-65
2022/11/23 12:13:14;;;;;;;;;;;;;;;16.61;73.54;98933.91;5049782;28;1955;-66
2022/11/23 12:15:42;;;;;;;;;;;;;;;16.62;73.70;98935.53;5058176;28;2092;-66
2022/11/23 12:18:07;;;;;;;;;;;;;;;16.62;73.44;98933.56;5060065;28;1644;-66
2022/11/23 12:20:48;;;;;;;;;;;;;;;16.63;73.96;98929.63;5062650;28;1769;-66
2022/11/23 12:23:19;;;;;;;;;;;;;;;16.63;74.22;98928.84;5053363;28;1589;-65
2022/11/23 12:25:57;;;;;;;;;;;;;;;16.63;73.46;98912.25;5053357;28;1408;-65
2022/11/23 12:28:30;;;;;;;;;;;;;;;16.62;74.23;98913.41;5052014;28;1619;-65
2022/11/23 12:31:18;;;;;;;;;;;;;;;16.62;73.49;98911.47;5056398;28;1797;-66
2022/11/23 12:33:52;;;;;;;;;;;;;;;16.63;73.53;98912.25;5064297;28;1922;-66
2022/11/23 12:36:36;;;;;;;;;;;;;;;16.64;73.73;98908.34;5053070;28;2041;-65
2022/11/23 12:39:20;;;;;;;;;;;;;;;16.64;73.34;98911.09;5047424;28;2019;-65
2022/11/23 12:41:45;;;;;;;;;;;;;;;16.64;74.04;98895.34;5052501;28;1922;-65
2022/11/23 12:44:13;;;;;;;;;;;;;;;16.65;74.09;98901.66;5051644;28;1603;-66
2022/11/23 12:46:47;;;;;;;;;;;;;;;16.65;73.23;98904.44;5050519;28;1933;-66
2022/11/23 12:49:21;;;;;;;;;;;;;;;16.66;73.30;98908.00;5061099;28;1925;-66
2022/11/23 12:51:58;;;;;;;;;;;;;;;16.67;73.43;98910.41;5064661;28;1612;-66
2022/11/23 12:54:40;;;;;;;;;;;;;;;16.65;73.91;98896.13;5060371;28;1889;-65
2022/11/23 12:57:14;;;;;;;;;;;;;;;16.67;73.26;98907.63;5056970;28;1880;-65